sensor_id;sensor_type;location;lat;lon;timestamp;P1;durP1;ratioP1;P2;durP2;ratioP2
23614;SDS011;11985;49.404;7.734;2023-07-02T00:04:49;3.30;;;1.98;;
23614;SDS011;11985;49.404;7.734;2023-07-02T00:09:51;5.97;;;2.38;;
23614;SDS011;11985;49.404;7.734;2023-07-02T00:14:52;4.70;;;2.40;;
23614;SDS011;11985;49.404;7.734;2023-07-02T00:19:55;4.32;;;2.35;;
23614;SDS011;11985;49.404;7.734;2023-07-02T00:24:57;9.07;;;2.95;;
23614;SDS011;11985;49.404;7.734;2023-07-02T00:29:58;3.22;;;2.40;;
23614;SDS011;11985;49.404;7.734;2023-07-02T00:35:01;6.93;;;2.60;;
23614;SDS011;11985;49.404;7.734;2023-07-02T00:40:03;6.88;;;2.72;;
23614;SDS011;11985;49.404;7.734;2023-07-02T00:45:06;8.35;;;2.58;;
23614;SDS011;11985;49.404;7.734;2023-07-02T00:50:10;8.52;;;2.88;;
23614;SDS011;11985;49.404;7.734;2023-07-02T00:55:12;7.97;;;3.00;;
23614;SDS011;11985;49.404;7.734;2023-07-02T01:00:14;7.75;;;3.15;;
23614;SDS011;11985;49.404;7.734;2023-07-02T01:05:18;5.07;;;2.97;;
23614;SDS011;11985;49.404;7.734;2023-07-02T01:10:21;11.95;;;3.13;;
23614;SDS011;11985;49.404;7.734;2023-07-02T01:15:23;7.47;;;2.67;;
23614;SDS011;11985;49.404;7.734;2023-07-02T01:20:26;7.03;;;2.92;;
23614;SDS011;11985;49.404;7.734;2023-07-02T01:25:30;4.03;;;2.40;;
23614;SDS011;11985;49.404;7.734;2023-07-02T01:30:36;6.82;;;2.78;;
23614;SDS011;11985;49.404;7.734;2023-07-02T01:35:39;5.93;;;2.78;;
23614;SDS011;11985;49.404;7.734;2023-07-02T01:40:41;9.23;;;2.90;;
23614;SDS011;11985;49.404;7.734;2023-07-02T01:45:42;4.60;;;2.90;;
23614;SDS011;11985;49.404;7.734;2023-07-02T01:50:45;5.68;;;2.92;;
23614;SDS011;11985;49.404;7.734;2023-07-02T01:55:47;11.80;;;3.83;;
23614;SDS011;11985;49.404;7.734;2023-07-02T02:00:49;7.72;;;3.80;;
23614;SDS011;11985;49.404;7.734;2023-07-02T02:05:52;7.25;;;3.85;;
23614;SDS011;11985;49.404;7.734;2023-07-02T02:10:53;9.52;;;4.15;;
23614;SDS011;11985;49.404;7.734;2023-07-02T02:15:55;11.73;;;3.90;;
23614;SDS011;11985;49.404;7.734;2023-07-02T02:20:58;10.63;;;3.60;;
23614;SDS011;11985;49.404;7.734;2023-07-02T02:25:59;7.93;;;3.63;;
23614;SDS011;11985;49.404;7.734;2023-07-02T02:31:01;7.00;;;3.45;;
23614;SDS011;11985;49.404;7.734;2023-07-02T02:36:04;10.73;;;4.63;;
23614;SDS011;11985;49.404;7.734;2023-07-02T02:41:06;7.63;;;3.85;;
23614;SDS011;11985;49.404;7.734;2023-07-02T02:46:08;14.27;;;4.40;;
23614;SDS011;11985;49.404;7.734;2023-07-02T02:51:11;9.45;;;4.13;;
23614;SDS011;11985;49.404;7.734;2023-07-02T02:56:13;11.65;;;4.80;;
23614;SDS011;11985;49.404;7.734;2023-07-02T03:01:15;10.15;;;4.68;;
23614;SDS011;11985;49.404;7.734;2023-07-02T03:06:18;9.63;;;5.10;;
23614;SDS011;11985;49.404;7.734;2023-07-02T03:11:19;9.98;;;4.70;;
23614;SDS011;11985;49.404;7.734;2023-07-02T03:16:21;17.33;;;5.13;;
23614;SDS011;11985;49.404;7.734;2023-07-02T03:21:23;14.43;;;5.07;;
23614;SDS011;11985;49.404;7.734;2023-07-02T03:26:25;11.90;;;5.10;;
23614;SDS011;11985;49.404;7.734;2023-07-02T03:31:27;10.65;;;5.60;;
23614;SDS011;11985;49.404;7.734;2023-07-02T03:36:30;15.55;;;5.75;;
23614;SDS011;11985;49.404;7.734;2023-07-02T03:41:31;12.80;;;5.82;;
23614;SDS011;11985;49.404;7.734;2023-07-02T03:46:33;15.27;;;5.75;;
23614;SDS011;11985;49.404;7.734;2023-07-02T03:51:36;18.20;;;6.78;;
23614;SDS011;11985;49.404;7.734;2023-07-02T03:56:38;15.27;;;6.95;;
23614;SDS011;11985;49.404;7.734;2023-07-02T04:01:40;12.07;;;6.15;;
23614;SDS011;11985;49.404;7.734;2023-07-02T04:06:43;10.13;;;5.90;;
23614;SDS011;11985;49.404;7.734;2023-07-02T04:11:44;19.65;;;6.65;;
23614;SDS011;11985;49.404;7.734;2023-07-02T04:16:46;12.95;;;6.13;;
23614;SDS011;11985;49.404;7.734;2023-07-02T04:21:49;19.52;;;6.72;;
23614;SDS011;11985;49.404;7.734;2023-07-02T04:26:50;15.35;;;6.70;;
23614;SDS011;11985;49.404;7.734;2023-07-02T04:31:53;20.80;;;8.10;;
23614;SDS011;11985;49.404;7.734;2023-07-02T04:36:55;15.52;;;7.38;;
23614;SDS011;11985;49.404;7.734;2023-07-02T04:41:57;15.82;;;7.65;;
23614;SDS011;11985;49.404;7.734;2023-07-02T04:47:01;18.35;;;7.60;;
23614;SDS011;11985;49.404;7.734;2023-07-02T04:52:05;20.35;;;7.38;;
23614;SDS011;11985;49.404;7.734;2023-07-02T04:57:06;17.60;;;8.43;;
23614;SDS011;11985;49.404;7.734;2023-07-02T05:02:08;20.50;;;8.32;;
23614;SDS011;11985;49.404;7.734;2023-07-02T05:07:11;15.23;;;7.93;;
23614;SDS011;11985;49.404;7.734;2023-07-02T05:12:13;18.98;;;8.23;;
23614;SDS011;11985;49.404;7.734;2023-07-02T05:17:14;25.60;;;9.38;;
23614;SDS011;11985;49.404;7.734;2023-07-02T05:22:17;21.23;;;8.93;;
23614;SDS011;11985;49.404;7.734;2023-07-02T05:27:19;23.48;;;9.25;;
23614;SDS011;11985;49.404;7.734;2023-07-02T05:32:20;20.90;;;8.48;;
23614;SDS011;11985;49.404;7.734;2023-07-02T05:37:24;19.05;;;8.68;;
23614;SDS011;11985;49.404;7.734;2023-07-02T05:42:25;18.38;;;9.00;;
23614;SDS011;11985;49.404;7.734;2023-07-02T05:47:27;18.08;;;8.43;;
23614;SDS011;11985;49.404;7.734;2023-07-02T05:52:30;20.60;;;8.85;;
23614;SDS011;11985;49.404;7.734;2023-07-02T05:57:31;28.90;;;10.43;;
23614;SDS011;11985;49.404;7.734;2023-07-02T06:02:33;24.42;;;9.65;;
23614;SDS011;11985;49.404;7.734;2023-07-02T06:07:36;18.35;;;9.05;;
23614;SDS011;11985;49.404;7.734;2023-07-02T06:12:38;20.35;;;9.43;;
23614;SDS011;11985;49.404;7.734;2023-07-02T06:17:39;20.20;;;11.15;;
23614;SDS011;11985;49.404;7.734;2023-07-02T06:22:42;19.90;;;9.02;;
23614;SDS011;11985;49.404;7.734;2023-07-02T06:27:44;24.27;;;10.50;;
23614;SDS011;11985;49.404;7.734;2023-07-02T06:32:46;19.05;;;10.00;;
23614;SDS011;11985;49.404;7.734;2023-07-02T06:37:49;24.75;;;11.43;;
23614;SDS011;11985;49.404;7.734;2023-07-02T06:42:50;26.05;;;11.60;;
23614;SDS011;11985;49.404;7.734;2023-07-02T06:47:52;28.27;;;12.18;;
23614;SDS011;11985;49.404;7.734;2023-07-02T06:52:55;30.35;;;11.75;;
23614;SDS011;11985;49.404;7.734;2023-07-02T06:57:57;32.47;;;12.77;;
23614;SDS011;11985;49.404;7.734;2023-07-02T07:02:59;29.65;;;14.10;;
23614;SDS011;11985;49.404;7.734;2023-07-02T07:08:02;31.38;;;14.50;;
23614;SDS011;11985;49.404;7.734;2023-07-02T07:13:03;37.88;;;15.95;;
23614;SDS011;11985;49.404;7.734;2023-07-02T07:18:05;34.53;;;16.17;;
23614;SDS011;11985;49.404;7.734;2023-07-02T07:23:11;29.08;;;15.60;;
23614;SDS011;11985;49.404;7.734;2023-07-02T07:28:13;39.20;;;15.98;;
23614;SDS011;11985;49.404;7.734;2023-07-02T07:33:15;39.25;;;16.58;;
23614;SDS011;11985;49.404;7.734;2023-07-02T07:38:18;33.08;;;16.00;;
23614;SDS011;11985;49.404;7.734;2023-07-02T07:43:20;31.88;;;15.80;;
23614;SDS011;11985;49.404;7.734;2023-07-02T07:48:22;27.85;;;14.80;;
23614;SDS011;11985;49.404;7.734;2023-07-02T07:53:24;35.20;;;17.10;;
23614;SDS011;11985;49.404;7.734;2023-07-02T07:58:26;37.08;;;14.57;;
23614;SDS011;11985;49.404;7.734;2023-07-02T08:03:28;36.88;;;15.75;;
23614;SDS011;11985;49.404;7.734;2023-07-02T08:08:31;33.15;;;15.38;;
23614;SDS011;11985;49.404;7.734;2023-07-02T08:13:32;32.60;;;15.20;;
23614;SDS011;11985;49.404;7.734;2023-07-02T08:18:34;36.30;;;15.45;;
23614;SDS011;11985;49.404;7.734;2023-07-02T08:23:37;38.75;;;15.77;;
23614;SDS011;11985;49.404;7.734;2023-07-02T08:28:38;30.45;;;14.93;;
23614;SDS011;11985;49.404;7.734;2023-07-02T08:33:40;34.95;;;14.95;;
23614;SDS011;11985;49.404;7.734;2023-07-02T08:38:43;33.72;;;15.23;;
23614;SDS011;11985;49.404;7.734;2023-07-02T08:43:44;44.08;;;16.15;;
23614;SDS011;11985;49.404;7.734;2023-07-02T08:48:48;34.33;;;15.57;;
23614;SDS011;11985;49.404;7.734;2023-07-02T08:53:51;37.88;;;15.98;;
23614;SDS011;11985;49.404;7.734;2023-07-02T08:58:53;39.55;;;16.08;;
23614;SDS011;11985;49.404;7.734;2023-07-02T09:03:58;33.65;;;15.68;;
23614;SDS011;11985;49.404;7.734;2023-07-02T09:09:05;36.70;;;17.58;;
23614;SDS011;11985;49.404;7.734;2023-07-02T09:14:07;33.80;;;16.40;;
23614;SDS011;11985;49.404;7.734;2023-07-02T09:19:09;37.05;;;17.58;;
23614;SDS011;11985;49.404;7.734;2023-07-02T09:24:14;38.75;;;16.90;;
23614;SDS011;11985;49.404;7.734;2023-07-02T09:29:18;33.30;;;14.70;;
23614;SDS011;11985;49.404;7.734;2023-07-02T09:34:26;35.00;;;16.08;;
23614;SDS011;11985;49.404;7.734;2023-07-02T09:39:31;42.30;;;17.23;;
23614;SDS011;11985;49.404;7.734;2023-07-02T09:44:34;37.45;;;17.50;;
23614;SDS011;11985;49.404;7.734;2023-07-02T09:49:37;31.25;;;16.00;;
23614;SDS011;11985;49.404;7.734;2023-07-02T09:54:41;36.53;;;16.83;;
23614;SDS011;11985;49.404;7.734;2023-07-02T09:59:43;31.25;;;15.13;;
23614;SDS011;11985;49.404;7.734;2023-07-02T10:04:46;34.85;;;15.77;;
23614;SDS011;11985;49.404;7.734;2023-07-02T10:09:56;31.48;;;15.02;;
23614;SDS011;11985;49.404;7.734;2023-07-02T10:14:58;31.27;;;15.13;;
23614;SDS011;11985;49.404;7.734;2023-07-02T10:20:00;26.88;;;13.38;;
23614;SDS011;11985;49.404;7.734;2023-07-02T10:25:08;28.80;;;14.85;;
23614;SDS011;11985;49.404;7.734;2023-07-02T10:30:10;29.45;;;14.10;;
23614;SDS011;11985;49.404;7.734;2023-07-02T10:35:15;26.13;;;13.68;;
23614;SDS011;11985;49.404;7.734;2023-07-02T10:40:19;25.05;;;13.60;;
23614;SDS011;11985;49.404;7.734;2023-07-02T10:45:20;32.72;;;13.77;;
23614;SDS011;11985;49.404;7.734;2023-07-02T10:50:31;26.75;;;13.88;;
23614;SDS011;11985;49.404;7.734;2023-07-02T10:55:34;31.05;;;15.73;;
23614;SDS011;11985;49.404;7.734;2023-07-02T11:00:45;27.92;;;15.00;;
23614;SDS011;11985;49.404;7.734;2023-07-02T11:05:47;30.17;;;14.70;;
23614;SDS011;11985;49.404;7.734;2023-07-02T11:10:51;28.83;;;14.38;;
23614;SDS011;11985;49.404;7.734;2023-07-02T11:16:16;27.75;;;13.95;;
23614;SDS011;11985;49.404;7.734;2023-07-02T11:21:18;27.63;;;15.25;;
23614;SDS011;11985;49.404;7.734;2023-07-02T11:26:21;28.67;;;13.27;;
23614;SDS011;11985;49.404;7.734;2023-07-02T11:31:26;30.50;;;15.10;;
23614;SDS011;11985;49.404;7.734;2023-07-02T11:36:28;34.63;;;15.65;;
23614;SDS011;11985;49.404;7.734;2023-07-02T11:41:37;24.98;;;13.52;;
23614;SDS011;11985;49.404;7.734;2023-07-02T11:46:39;31.25;;;14.45;;
23614;SDS011;11985;49.404;7.734;2023-07-02T11:51:41;30.85;;;14.35;;
23614;SDS011;11985;49.404;7.734;2023-07-02T11:56:49;29.05;;;14.02;;
23614;SDS011;11985;49.404;7.734;2023-07-02T12:01:51;26.83;;;15.15;;
23614;SDS011;11985;49.404;7.734;2023-07-02T12:06:52;33.97;;;14.43;;
23614;SDS011;11985;49.404;7.734;2023-07-02T12:11:55;35.22;;;15.82;;
23614;SDS011;11985;49.404;7.734;2023-07-02T12:16:56;26.70;;;13.98;;
23614;SDS011;11985;49.404;7.734;2023-07-02T12:21:58;32.15;;;14.63;;
23614;SDS011;11985;49.404;7.734;2023-07-02T12:27:01;26.17;;;14.43;;
23614;SDS011;11985;49.404;7.734;2023-07-02T12:32:03;32.60;;;13.70;;
23614;SDS011;11985;49.404;7.734;2023-07-02T12:37:05;27.80;;;14.52;;
23614;SDS011;11985;49.404;7.734;2023-07-02T12:42:08;26.58;;;12.98;;
23614;SDS011;11985;49.404;7.734;2023-07-02T12:47:10;27.55;;;13.13;;
23614;SDS011;11985;49.404;7.734;2023-07-02T12:52:11;23.95;;;12.93;;
23614;SDS011;11985;49.404;7.734;2023-07-02T12:57:14;26.25;;;13.18;;
23614;SDS011;11985;49.404;7.734;2023-07-02T13:02:16;28.30;;;14.85;;
23614;SDS011;11985;49.404;7.734;2023-07-02T13:07:18;33.30;;;15.57;;
23614;SDS011;11985;49.404;7.734;2023-07-02T13:12:21;23.75;;;13.40;;
23614;SDS011;11985;49.404;7.734;2023-07-02T13:17:22;25.38;;;13.68;;
23614;SDS011;11985;49.404;7.734;2023-07-02T13:22:24;25.92;;;13.60;;
23614;SDS011;11985;49.404;7.734;2023-07-02T13:27:27;24.75;;;12.90;;
23614;SDS011;11985;49.404;7.734;2023-07-02T13:32:29;27.95;;;14.05;;
23614;SDS011;11985;49.404;7.734;2023-07-02T13:37:30;25.73;;;14.30;;
23614;SDS011;11985;49.404;7.734;2023-07-02T13:42:33;28.00;;;14.20;;
23614;SDS011;11985;49.404;7.734;2023-07-02T13:47:35;31.15;;;14.45;;
23614;SDS011;11985;49.404;7.734;2023-07-02T13:52:36;24.42;;;13.07;;
23614;SDS011;11985;49.404;7.734;2023-07-02T13:57:39;27.92;;;12.93;;
23614;SDS011;11985;49.404;7.734;2023-07-02T14:02:42;23.90;;;13.73;;
23614;SDS011;11985;49.404;7.734;2023-07-02T14:07:44;25.30;;;13.93;;
23614;SDS011;11985;49.404;7.734;2023-07-02T14:12:46;30.65;;;13.93;;
23614;SDS011;11985;49.404;7.734;2023-07-02T14:17:49;23.60;;;13.23;;
23614;SDS011;11985;49.404;7.734;2023-07-02T14:22:50;25.02;;;12.88;;
23614;SDS011;11985;49.404;7.734;2023-07-02T14:27:52;27.25;;;14.40;;
23614;SDS011;11985;49.404;7.734;2023-07-02T14:32:55;29.23;;;14.00;;
23614;SDS011;11985;49.404;7.734;2023-07-02T14:37:56;27.13;;;13.95;;
23614;SDS011;11985;49.404;7.734;2023-07-02T14:42:58;26.40;;;13.80;;
23614;SDS011;11985;49.404;7.734;2023-07-02T14:48:01;23.65;;;12.70;;
23614;SDS011;11985;49.404;7.734;2023-07-02T14:53:03;31.80;;;13.85;;
23614;SDS011;11985;49.404;7.734;2023-07-02T14:58:04;22.85;;;12.25;;
23614;SDS011;11985;49.404;7.734;2023-07-02T15:03:07;24.42;;;13.25;;
23614;SDS011;11985;49.404;7.734;2023-07-02T15:08:09;24.15;;;13.05;;
23614;SDS011;11985;49.404;7.734;2023-07-02T15:13:12;27.58;;;13.20;;
23614;SDS011;11985;49.404;7.734;2023-07-02T15:18:16;28.92;;;13.80;;
23614;SDS011;11985;49.404;7.734;2023-07-02T15:23:17;27.63;;;13.35;;
23614;SDS011;11985;49.404;7.734;2023-07-02T15:28:19;23.23;;;11.85;;
23614;SDS011;11985;49.404;7.734;2023-07-02T15:33:23;28.83;;;12.63;;
23614;SDS011;11985;49.404;7.734;2023-07-02T15:38:25;27.77;;;12.10;;
23614;SDS011;11985;49.404;7.734;2023-07-02T15:43:27;22.50;;;11.50;;
23614;SDS011;11985;49.404;7.734;2023-07-02T15:48:30;25.02;;;13.50;;
23614;SDS011;11985;49.404;7.734;2023-07-02T15:53:31;27.17;;;12.50;;
23614;SDS011;11985;49.404;7.734;2023-07-02T15:58:34;27.83;;;13.10;;
23614;SDS011;11985;49.404;7.734;2023-07-02T16:03:37;24.42;;;12.88;;
23614;SDS011;11985;49.404;7.734;2023-07-02T16:08:38;29.42;;;12.68;;
23614;SDS011;11985;49.404;7.734;2023-07-02T16:13:41;26.95;;;12.52;;
23614;SDS011;11985;49.404;7.734;2023-07-02T16:18:46;22.73;;;11.98;;
23614;SDS011;11985;49.404;7.734;2023-07-02T16:23:48;22.80;;;13.18;;
23614;SDS011;11985;49.404;7.734;2023-07-02T16:28:49;21.98;;;11.98;;
23614;SDS011;11985;49.404;7.734;2023-07-02T16:33:52;21.83;;;11.57;;
23614;SDS011;11985;49.404;7.734;2023-07-02T16:38:54;24.52;;;12.00;;
23614;SDS011;11985;49.404;7.734;2023-07-02T16:43:55;27.63;;;11.60;;
23614;SDS011;11985;49.404;7.734;2023-07-02T16:48:59;25.20;;;11.65;;
23614;SDS011;11985;49.404;7.734;2023-07-02T16:54:00;19.63;;;9.82;;
23614;SDS011;11985;49.404;7.734;2023-07-02T16:59:02;23.08;;;11.75;;
23614;SDS011;11985;49.404;7.734;2023-07-02T17:04:05;27.95;;;13.00;;
23614;SDS011;11985;49.404;7.734;2023-07-02T17:09:17;22.90;;;11.10;;
23614;SDS011;11985;49.404;7.734;2023-07-02T17:14:22;25.98;;;11.13;;
23614;SDS011;11985;49.404;7.734;2023-07-02T17:19:29;25.33;;;10.85;;
23614;SDS011;11985;49.404;7.734;2023-07-02T17:24:34;23.92;;;10.65;;
23614;SDS011;11985;49.404;7.734;2023-07-02T17:29:36;30.00;;;10.88;;
23614;SDS011;11985;49.404;7.734;2023-07-02T17:34:39;25.20;;;10.75;;
23614;SDS011;11985;49.404;7.734;2023-07-02T17:39:41;23.50;;;10.45;;
23614;SDS011;11985;49.404;7.734;2023-07-02T17:44:44;23.38;;;10.43;;
23614;SDS011;11985;49.404;7.734;2023-07-02T17:49:49;24.55;;;10.02;;
23614;SDS011;11985;49.404;7.734;2023-07-02T17:54:51;19.80;;;10.30;;
23614;SDS011;11985;49.404;7.734;2023-07-02T17:59:54;25.07;;;10.37;;
23614;SDS011;11985;49.404;7.734;2023-07-02T18:04:57;23.55;;;9.77;;
23614;SDS011;11985;49.404;7.734;2023-07-02T18:09:59;27.92;;;10.43;;
23614;SDS011;11985;49.404;7.734;2023-07-02T18:15:01;26.00;;;9.52;;
23614;SDS011;11985;49.404;7.734;2023-07-02T18:20:04;26.13;;;10.38;;
23614;SDS011;11985;49.404;7.734;2023-07-02T18:25:07;23.90;;;9.88;;
23614;SDS011;11985;49.404;7.734;2023-07-02T18:30:10;25.63;;;10.25;;
23614;SDS011;11985;49.404;7.734;2023-07-02T18:35:15;21.23;;;9.80;;
23614;SDS011;11985;49.404;7.734;2023-07-02T18:40:16;25.17;;;10.68;;
23614;SDS011;11985;49.404;7.734;2023-07-02T18:45:22;31.77;;;10.68;;
23614;SDS011;11985;49.404;7.734;2023-07-02T18:50:25;20.08;;;10.18;;
23614;SDS011;11985;49.404;7.734;2023-07-02T18:55:26;24.23;;;10.07;;
23614;SDS011;11985;49.404;7.734;2023-07-02T19:00:28;22.27;;;10.15;;
23614;SDS011;11985;49.404;7.734;2023-07-02T19:05:31;22.15;;;10.73;;
23614;SDS011;11985;49.404;7.734;2023-07-02T19:10:32;23.67;;;10.00;;
23614;SDS011;11985;49.404;7.734;2023-07-02T19:15:34;25.27;;;11.00;;
23614;SDS011;11985;49.404;7.734;2023-07-02T19:20:37;25.38;;;11.27;;
23614;SDS011;11985;49.404;7.734;2023-07-02T19:25:38;24.35;;;10.45;;
23614;SDS011;11985;49.404;7.734;2023-07-02T19:30:40;23.33;;;10.07;;
23614;SDS011;11985;49.404;7.734;2023-07-02T19:35:43;24.30;;;10.57;;
23614;SDS011;11985;49.404;7.734;2023-07-02T19:40:51;26.33;;;11.20;;
23614;SDS011;11985;49.404;7.734;2023-07-02T19:45:56;20.30;;;10.23;;
23614;SDS011;11985;49.404;7.734;2023-07-02T19:51:00;25.20;;;10.05;;
23614;SDS011;11985;49.404;7.734;2023-07-02T20:01:07;24.77;;;10.07;;
23614;SDS011;11985;49.404;7.734;2023-07-02T20:06:12;26.73;;;10.98;;
23614;SDS011;11985;49.404;7.734;2023-07-02T20:11:14;21.67;;;10.57;;
23614;SDS011;11985;49.404;7.734;2023-07-02T20:16:15;24.60;;;10.77;;
23614;SDS011;11985;49.404;7.734;2023-07-02T20:21:20;25.25;;;10.45;;
23614;SDS011;11985;49.404;7.734;2023-07-02T20:26:22;23.42;;;10.07;;
23614;SDS011;11985;49.404;7.734;2023-07-02T20:31:23;22.55;;;10.05;;
23614;SDS011;11985;49.404;7.734;2023-07-02T20:36:26;23.10;;;10.07;;
23614;SDS011;11985;49.404;7.734;2023-07-02T20:41:28;23.00;;;10.70;;
23614;SDS011;11985;49.404;7.734;2023-07-02T20:46:30;23.67;;;9.65;;
23614;SDS011;11985;49.404;7.734;2023-07-02T20:51:33;23.42;;;9.48;;
23614;SDS011;11985;49.404;7.734;2023-07-02T20:56:35;24.02;;;9.43;;
23614;SDS011;11985;49.404;7.734;2023-07-02T21:01:37;24.05;;;10.02;;
23614;SDS011;11985;49.404;7.734;2023-07-02T21:06:40;23.13;;;10.40;;
23614;SDS011;11985;49.404;7.734;2023-07-02T21:11:42;24.65;;;10.05;;
23614;SDS011;11985;49.404;7.734;2023-07-02T21:16:44;22.27;;;10.02;;
23614;SDS011;11985;49.404;7.734;2023-07-02T21:26:51;29.30;;;9.80;;
23614;SDS011;11985;49.404;7.734;2023-07-02T21:31:53;28.52;;;10.07;;
23614;SDS011;11985;49.404;7.734;2023-07-02T21:36:56;27.50;;;10.02;;
23614;SDS011;11985;49.404;7.734;2023-07-02T21:41:57;24.27;;;10.82;;
23614;SDS011;11985;49.404;7.734;2023-07-02T21:46:59;25.02;;;10.02;;
23614;SDS011;11985;49.404;7.734;2023-07-02T21:52:02;25.20;;;10.02;;
23614;SDS011;11985;49.404;7.734;2023-07-02T21:57:04;28.00;;;9.95;;
23614;SDS011;11985;49.404;7.734;2023-07-02T22:02:06;28.15;;;9.82;;
23614;SDS011;11985;49.404;7.734;2023-07-02T22:07:09;23.55;;;9.88;;
23614;SDS011;11985;49.404;7.734;2023-07-02T22:12:10;23.15;;;9.30;;
23614;SDS011;11985;49.404;7.734;2023-07-02T22:17:12;25.63;;;9.68;;
23614;SDS011;11985;49.404;7.734;2023-07-02T22:22:15;22.42;;;10.50;;
23614;SDS011;11985;49.404;7.734;2023-07-02T22:27:16;23.45;;;10.18;;
23614;SDS011;11985;49.404;7.734;2023-07-02T22:32:18;25.88;;;10.55;;
23614;SDS011;11985;49.404;7.734;2023-07-02T22:37:22;25.10;;;10.02;;
23614;SDS011;11985;49.404;7.734;2023-07-02T22:42:24;26.55;;;10.25;;
23614;SDS011;11985;49.404;7.734;2023-07-02T22:47:26;25.08;;;10.48;;
23614;SDS011;11985;49.404;7.734;2023-07-02T22:52:29;25.30;;;9.45;;
23614;SDS011;11985;49.404;7.734;2023-07-02T22:57:31;27.60;;;9.73;;
23614;SDS011;11985;49.404;7.734;2023-07-02T23:02:33;29.40;;;10.07;;
23614;SDS011;11985;49.404;7.734;2023-07-02T23:07:36;27.17;;;9.00;;
23614;SDS011;11985;49.404;7.734;2023-07-02T23:12:39;24.63;;;9.97;;
23614;SDS011;11985;49.404;7.734;2023-07-02T23:17:43;21.00;;;8.82;;
23614;SDS011;11985;49.404;7.734;2023-07-02T23:22:48;23.33;;;9.57;;
23614;SDS011;11985;49.404;7.734;2023-07-02T23:27:50;24.58;;;10.13;;
23614;SDS011;11985;49.404;7.734;2023-07-02T23:33:03;28.08;;;10.68;;
23614;SDS011;11985;49.404;7.734;2023-07-02T23:38:10;29.98;;;10.05;;
23614;SDS011;11985;49.404;7.734;2023-07-02T23:43:11;28.20;;;9.57;;
23614;SDS011;11985;49.404;7.734;2023-07-02T23:48:13;23.60;;;11.07;;
23614;SDS011;11985;49.404;7.734;2023-07-02T23:53:16;26.90;;;9.70;;
23614;SDS011;11985;49.404;7.734;2023-07-02T23:58:17;23.92;;;10.75;;
